Time;durP1;ratioP1;P1;durP2;ratioP2;P2;SDS_P1;SDS_P2;PMS_P1;PMS_P2;Temp;Humidity;BMP_temperature;BMP_pressure;BME280_temperature;BME280_humidity;BME280_pressure;Samples;Min_cycle;Max_cycle;Signal;HPM_P1;HPM_P2
2021/05/26 00:00:03;;;;;;;5.53;2.73;;;;;;;;;;5040472;28;20728;-74
2021/05/26 00:02:29;;;;;;;8.77;2.87;;;;;;;;;;5041875;28;20262;-74
2021/05/26 00:04:56;;;;;;;8.43;2.73;;;;;;;;;;5037518;28;20242;-76
2021/05/26 00:07:24;;;;;;;10.73;3.10;;;;;;;;;;5038738;28;20262;-74
2021/05/26 00:09:50;;;;;;;5.33;2.93;;;;;;;;;;5041400;28;20314;-76
2021/05/26 00:12:17;;;;;;;8.17;2.83;;;;;;;;;;5040986;28;20257;-75
2021/05/26 00:14:44;;;;;;;6.83;2.83;;;;;;;;;;5038666;28;20662;-76
2021/05/26 00:17:11;;;;;;;6.50;3.10;;;;;;;;;;5035375;28;20233;-75
2021/05/26 00:19:39;;;;;;;8.77;3.70;;;;;;;;;;5032303;28;20215;-76
2021/05/26 00:22:05;;;;;;;6.47;2.60;;;;;;;;;;5038094;28;20371;-75
2021/05/26 00:24:33;;;;;;;9.57;2.87;;;;;;;;;;5036865;28;20701;-75
2021/05/26 00:27:00;;;;;;;8.00;2.60;;;;;;;;;;5041553;28;20310;-75
2021/05/26 00:29:26;;;;;;;10.90;2.97;;;;;;;;;;5057406;28;20328;-75
2021/05/26 00:31:53;;;;;;;9.57;2.90;;;;;;;;;;5051974;28;20207;-76
2021/05/26 00:34:20;;;;;;;7.80;3.20;;;;;;;;;;5033648;28;20322;-75
2021/05/26 00:36:46;;;;;;;10.70;3.13;;;;;;;;;;5032434;28;20301;-75
2021/05/26 00:39:13;;;;;;;7.37;2.97;;;;;;;;;;5037274;28;20430;-75
2021/05/26 00:41:41;;;;;;;7.20;2.87;;;;;;;;;;5040452;28;20609;-76
2021/05/26 00:44:08;;;;;;;5.43;2.70;;;;;;;;;;5039137;28;20285;-74
2021/05/26 00:46:39;;;;;;;9.50;3.30;;;;;;;;;;5038991;28;20306;-76
2021/05/26 00:49:06;;;;;;;10.33;2.37;;;;;;;;;;5037211;28;20306;-75
2021/05/26 00:51:33;;;;;;;7.73;2.60;;;;;;;;;;5036460;28;20648;-75
2021/05/26 00:54:00;;;;;;;9.37;2.90;;;;;;;;;;5041026;28;20199;-76
2021/05/26 00:56:27;;;;;;;9.00;2.60;;;;;;;;;;5038969;28;20226;-75
2021/05/26 00:58:54;;;;;;;12.70;2.50;;;;;;;;;;5036601;28;20677;-74
2021/05/26 01:01:21;;;;;;;9.70;2.40;;;;;;;;;;5035638;28;20297;-75
2021/05/26 01:03:48;;;;;;;6.67;2.17;;;;;;;;;;5038840;28;20234;-75
2021/05/26 01:06:14;;;;;;;8.77;2.73;;;;;;;;;;5038391;28;20306;-75
2021/05/26 01:08:41;;;;;;;9.70;2.90;;;;;;;;;;5032624;28;20662;-75
2021/05/26 01:11:09;;;;;;;8.57;2.83;;;;;;;;;;5031479;28;20302;-75
2021/05/26 01:13:36;;;;;;;9.30;3.13;;;;;;;;;;5033878;28;20199;-75
2021/05/26 01:16:03;;;;;;;5.57;2.20;;;;;;;;;;5035730;28;20247;-76
2021/05/26 01:18:30;;;;;;;8.17;2.50;;;;;;;;;;5035229;28;20217;-75
2021/05/26 01:20:58;;;;;;;5.47;2.37;;;;;;;;;;5032107;28;20291;-75
2021/05/26 01:23:25;;;;;;;11.23;2.97;;;;;;;;;;5032229;28;20300;-75
2021/05/26 01:25:55;;;;;;;3.07;2.20;;;;;;;;;;5031798;28;20660;-74
2021/05/26 01:28:22;;;;;;;9.40;2.70;;;;;;;;;;5034846;28;20223;-75
2021/05/26 01:30:49;;;;;;;11.23;2.80;;;;;;;;;;5035381;28;20628;-75
2021/05/26 01:33:16;;;;;;;8.43;2.60;;;;;;;;;;5036387;28;20357;-75
2021/05/26 01:35:43;;;;;;;5.50;2.70;;;;;;;;;;5032726;28;20251;-76
2021/05/26 01:38:12;;;;;;;10.93;2.83;;;;;;;;;;5055460;28;20199;-76
2021/05/26 01:40:40;;;;;;;5.60;2.87;;;;;;;;;;5057167;28;20553;-74
2021/05/26 01:43:07;;;;;;;7.90;2.50;;;;;;;;;;5037845;28;20592;-75
2021/05/26 01:45:33;;;;;;;12.60;3.27;;;;;;;;;;5037331;28;20241;-75
2021/05/26 01:48:00;;;;;;;8.80;3.03;;;;;;;;;;5038713;28;20286;-75
2021/05/26 01:50:27;;;;;;;13.70;3.13;;;;;;;;;;5034390;28;20286;-74
2021/05/26 01:52:54;;;;;;;8.77;3.13;;;;;;;;;;5034968;28;20529;-75
2021/05/26 01:55:21;;;;;;;8.93;3.10;;;;;;;;;;5031850;28;20289;-74
2021/05/26 01:57:49;;;;;;;10.10;3.50;;;;;;;;;;5034326;28;20231;-75
2021/05/26 02:00:16;;;;;;;8.90;3.40;;;;;;;;;;5035785;28;20570;-75
2021/05/26 02:02:43;;;;;;;9.10;3.30;;;;;;;;;;5032348;28;20203;-75
2021/05/26 02:05:10;;;;;;;7.23;3.20;;;;;;;;;;5032495;28;20629;-75
2021/05/26 02:07:37;;;;;;;9.07;3.20;;;;;;;;;;5031642;28;20298;-75
2021/05/26 02:10:04;;;;;;;7.87;3.23;;;;;;;;;;5036588;28;20309;-75
2021/05/26 02:15:38;;;;;;;8.93;3.63;;;;;;;;;;5069840;28;20194;-83
2021/05/26 02:21:18;;;;;;;8.33;3.23;;;;;;;;;;5065809;28;20243;-82
2021/05/26 02:29:52;;;;;;;8.97;3.60;;;;;;;;;;5084186;28;20252;-83
2021/05/26 02:32:22;;;;;;;9.43;3.90;;;;;;;;;;5067692;28;20305;-84
2021/05/26 02:34:49;;;;;;;11.77;3.53;;;;;;;;;;5064964;28;20202;-83
2021/05/26 02:37:16;;;;;;;8.57;3.60;;;;;;;;;;5063943;28;20259;-83
2021/05/26 02:40:17;;;;;;;13.10;4.20;;;;;;;;;;5068637;28;20202;-83
2021/05/26 02:42:44;;;;;;;15.00;3.97;;;;;;;;;;5059865;28;20237;-83
2021/05/26 02:45:12;;;;;;;7.40;3.70;;;;;;;;;;5070002;28;20199;-83
2021/05/26 02:47:40;;;;;;;12.80;5.13;;;;;;;;;;5063030;28;20202;-82
2021/05/26 02:50:07;;;;;;;13.37;4.87;;;;;;;;;;5064751;28;21067;-83
2021/05/26 02:52:34;;;;;;;11.70;4.70;;;;;;;;;;5068877;28;20315;-83
2021/05/26 02:55:00;;;;;;;9.43;4.33;;;;;;;;;;5065682;28;20220;-84
2021/05/26 02:57:27;;;;;;;10.80;4.40;;;;;;;;;;5068127;28;20257;-83
2021/05/26 02:59:54;;;;;;;8.60;3.77;;;;;;;;;;5064540;28;20207;-84
2021/05/26 03:02:21;;;;;;;9.87;4.20;;;;;;;;;;5058601;28;20219;-83
2021/05/26 03:04:48;;;;;;;12.50;4.60;;;;;;;;;;5065934;28;20202;-84
2021/05/26 03:07:15;;;;;;;12.90;4.57;;;;;;;;;;5062892;28;20242;-83
2021/05/26 03:09:42;;;;;;;9.77;3.80;;;;;;;;;;5063709;28;20234;-83
2021/05/26 03:12:09;;;;;;;6.63;3.47;;;;;;;;;;5062619;28;20238;-83
2021/05/26 03:14:36;;;;;;;10.73;3.40;;;;;;;;;;5063770;28;20203;-83
2021/05/26 03:17:02;;;;;;;9.07;3.57;;;;;;;;;;5065281;28;20195;-84
2021/05/26 03:19:29;;;;;;;7.97;3.20;;;;;;;;;;5063058;28;20650;-84
2021/05/26 03:21:57;;;;;;;3.93;2.10;;;;;;;;;;5056018;28;20223;-82
2021/05/26 03:24:24;;;;;;;4.57;2.20;;;;;;;;;;5066299;28;20274;-83
2021/05/26 03:29:56;;;;;;;4.50;1.90;;;;;;;;;;4979274;28;21361;-84
2021/05/26 03:32:25;;;;;;;6.43;2.00;;;;;;;;;;5065733;28;20240;-83
2021/05/26 03:34:51;;;;;;;5.80;1.90;;;;;;;;;;5055577;28;20298;-83
2021/05/26 03:37:19;;;;;;;7.23;2.10;;;;;;;;;;5063467;28;20226;-84
2021/05/26 03:39:46;;;;;;;6.50;2.17;;;;;;;;;;5059755;28;20191;-83
2021/05/26 03:42:13;;;;;;;4.50;1.67;;;;;;;;;;5061596;28;20306;-82
2021/05/26 03:44:39;;;;;;;3.80;1.87;;;;;;;;;;5057101;28;20571;-83
2021/05/26 03:47:06;;;;;;;5.13;1.70;;;;;;;;;;5061787;28;20234;-83
2021/05/26 03:49:34;;;;;;;2.97;1.50;;;;;;;;;;5063188;28;20254;-82
2021/05/26 03:52:04;;;;;;;1.80;1.40;;;;;;;;;;5066399;28;20234;-83
2021/05/26 03:54:33;;;;;;;5.50;2.13;;;;;;;;;;5063670;28;20206;-83
2021/05/26 03:57:00;;;;;;;3.77;1.60;;;;;;;;;;5064315;28;20206;-83
2021/05/26 03:59:27;;;;;;;4.63;1.30;;;;;;;;;;5062092;28;20206;-83
2021/05/26 04:01:54;;;;;;;2.23;1.40;;;;;;;;;;5067203;28;20221;-83
2021/05/26 04:04:21;;;;;;;4.90;1.33;;;;;;;;;;5063518;28;21036;-82
2021/05/26 04:06:47;;;;;;;4.07;1.40;;;;;;;;;;5071357;28;20234;-83
2021/05/26 04:09:14;;;;;;;3.63;1.80;;;;;;;;;;5089892;28;20221;-84
2021/05/26 04:11:43;;;;;;;6.77;1.67;;;;;;;;;;5090134;28;20221;-84
2021/05/26 04:17:16;;;;;;;5.00;1.50;;;;;;;;;;5051695;28;20202;-83
2021/05/26 04:19:43;;;;;;;7.20;1.40;;;;;;;;;;5067626;28;20209;-83
2021/05/26 04:22:09;;;;;;;4.97;1.40;;;;;;;;;;5064474;28;20281;-82
2021/05/26 04:24:36;;;;;;;4.57;1.50;;;;;;;;;;5060885;28;20217;-83
2021/05/26 04:27:04;;;;;;;4.87;1.27;;;;;;;;;;5060043;28;20203;-85
2021/05/26 04:29:31;;;;;;;2.93;1.40;;;;;;;;;;5059857;28;20289;-83
2021/05/26 04:31:58;;;;;;;3.83;1.83;;;;;;;;;;5056529;28;20226;-83
2021/05/26 04:34:25;;;;;;;15.07;2.67;;;;;;;;;;5060379;28;20234;-83
2021/05/26 04:36:51;;;;;;;2.17;1.10;;;;;;;;;;5064236;28;20202;-83
2021/05/26 04:39:18;;;;;;;4.40;1.30;;;;;;;;;;5064702;28;20652;-83
2021/05/26 04:41:45;;;;;;;4.17;1.43;;;;;;;;;;5058090;28;20316;-84
2021/05/26 04:44:14;;;;;;;4.10;1.50;;;;;;;;;;5064978;28;20695;-84
2021/05/26 04:46:40;;;;;;;6.20;1.50;;;;;;;;;;5058022;28;20280;-84
2021/05/26 04:49:07;;;;;;;3.03;1.73;;;;;;;;;;5059590;28;20228;-83
2021/05/26 04:51:34;;;;;;;4.73;1.30;;;;;;;;;;5061263;28;21385;-83
2021/05/26 04:54:01;;;;;;;6.53;1.13;;;;;;;;;;5057747;28;20219;-82
2021/05/26 04:56:27;;;;;;;4.50;1.20;;;;;;;;;;5063912;28;20594;-82
2021/05/26 04:58:54;;;;;;;4.97;1.27;;;;;;;;;;5056652;28;20203;-83
2021/05/26 05:01:22;;;;;;;4.00;1.40;;;;;;;;;;5060492;28;20241;-83
2021/05/26 05:03:49;;;;;;;2.47;1.37;;;;;;;;;;5058992;28;20213;-83
2021/05/26 05:06:15;;;;;;;3.13;1.40;;;;;;;;;;5058666;28;20233;-82
2021/05/26 05:08:42;;;;;;;3.10;1.50;;;;;;;;;;5057168;28;20291;-82
2021/05/26 05:11:09;;;;;;;3.53;1.80;;;;;;;;;;5063972;28;20683;-82
2021/05/26 05:13:36;;;;;;;6.90;1.70;;;;;;;;;;5059168;28;20603;-82
2021/05/26 05:19:07;;;;;;;6.27;1.70;;;;;;;;;;5067938;28;20628;-82
2021/05/26 05:21:35;;;;;;;3.17;1.57;;;;;;;;;;5065378;28;20336;-85
2021/05/26 05:24:02;;;;;;;6.87;1.57;;;;;;;;;;5065191;28;20965;-84
2021/05/26 05:26:29;;;;;;;5.50;1.50;;;;;;;;;;5067940;28;20366;-84
2021/05/26 05:28:55;;;;;;;4.13;1.70;;;;;;;;;;5061060;28;20321;-83
2021/05/26 05:31:24;;;;;;;5.43;1.60;;;;;;;;;;5064779;28;20245;-82
2021/05/26 05:33:51;;;;;;;3.07;1.57;;;;;;;;;;5066350;28;20285;-84
2021/05/26 05:36:18;;;;;;;4.93;1.43;;;;;;;;;;5066872;28;20260;-83
2021/05/26 05:38:45;;;;;;;2.63;1.60;;;;;;;;;;5062946;28;20793;-83
2021/05/26 05:41:12;;;;;;;2.47;1.10;;;;;;;;;;5065174;28;20302;-82
2021/05/26 05:43:38;;;;;;;1.37;1.00;;;;;;;;;;5061373;28;20195;-84
2021/05/26 05:46:05;;;;;;;4.80;1.20;;;;;;;;;;5068689;28;20210;-83
2021/05/26 05:48:33;;;;;;;3.10;0.80;;;;;;;;;;5063406;28;20233;-83
2021/05/26 05:51:00;;;;;;;4.70;0.70;;;;;;;;;;5065239;28;20705;-83
2021/05/26 05:53:27;;;;;;;4.13;0.77;;;;;;;;;;5084958;28;20220;-82
2021/05/26 05:55:57;;;;;;;1.73;0.70;;;;;;;;;;5092792;28;20202;-83
2021/05/26 05:58:24;;;;;;;0.93;0.60;;;;;;;;;;5098785;28;20201;-84
2021/05/26 06:00:51;;;;;;;2.57;0.77;;;;;;;;;;5085284;28;20559;-84
2021/05/26 06:03:18;;;;;;;2.20;0.60;;;;;;;;;;5073453;28;20302;-85
2021/05/26 06:05:45;;;;;;;5.50;0.63;;;;;;;;;;5072696;28;20207;-84
2021/05/26 06:08:12;;;;;;;6.33;0.83;;;;;;;;;;5074269;28;20203;-85
2021/05/26 06:10:39;;;;;;;2.20;0.50;;;;;;;;;;5070024;28;20227;-84
2021/05/26 06:13:08;;;;;;;1.90;0.40;;;;;;;;;;5072383;28;20272;-83
2021/05/26 06:15:34;;;;;;;5.90;0.40;;;;;;;;;;5072303;28;20923;-85
2021/05/26 06:18:03;;;;;;;2.27;0.60;;;;;;;;;;5073114;28;20206;-83
2021/05/26 06:20:29;;;;;;;0.50;0.40;;;;;;;;;;5070838;28;20234;-83
2021/05/26 06:22:56;;;;;;;0.57;0.30;;;;;;;;;;5067867;28;20257;-84
2021/05/26 06:25:26;;;;;;;2.97;0.30;;;;;;;;;;5070117;28;20226;-85
2021/05/26 06:27:55;;;;;;;0.53;0.30;;;;;;;;;;5064946;28;20554;-85
2021/05/26 06:30:24;;;;;;;0.40;0.30;;;;;;;;;;5066918;28;20234;-85
2021/05/26 06:32:51;;;;;;;1.00;0.40;;;;;;;;;;5065294;28;20321;-84
2021/05/26 06:35:18;;;;;;;0.53;0.30;;;;;;;;;;5073435;28;20202;-84
2021/05/26 06:37:45;;;;;;;2.67;0.60;;;;;;;;;;5065673;28;20215;-85
2021/05/26 06:40:14;;;;;;;0.20;0.20;;;;;;;;;;5070898;28;20218;-84
2021/05/26 06:42:40;;;;;;;2.20;0.30;;;;;;;;;;5072452;28;20229;-85
2021/05/26 06:45:09;;;;;;;1.03;0.30;;;;;;;;;;5065831;28;20266;-83
2021/05/26 06:47:35;;;;;;;0.60;0.40;;;;;;;;;;5070423;28;20199;-84
2021/05/26 06:50:02;;;;;;;2.70;0.30;;;;;;;;;;5069875;28;20222;-85
2021/05/26 06:52:30;;;;;;;2.87;0.40;;;;;;;;;;5066114;28;20287;-83
2021/05/26 06:54:57;;;;;;;0.30;0.30;;;;;;;;;;5067936;28;20195;-85
2021/05/26 06:57:26;;;;;;;0.83;0.30;;;;;;;;;;5064075;28;20202;-84
2021/05/26 06:59:53;;;;;;;2.00;0.40;;;;;;;;;;5065117;28;20215;-85
2021/05/26 07:02:20;;;;;;;0.70;0.30;;;;;;;;;;5067554;28;20279;-85
2021/05/26 07:04:57;;;;;;;1.23;0.33;;;;;;;;;;5065029;28;20655;-85
2021/05/26 07:07:24;;;;;;;1.23;0.47;;;;;;;;;;5062601;28;20213;-84
2021/05/26 07:09:51;;;;;;;2.70;0.60;;;;;;;;;;5065458;28;20279;-83
2021/05/26 07:12:17;;;;;;;1.20;0.57;;;;;;;;;;5064645;28;20261;-83
2021/05/26 07:14:46;;;;;;;1.43;0.30;;;;;;;;;;5068834;28;20213;-84
2021/05/26 07:17:13;;;;;;;0.93;0.40;;;;;;;;;;5064374;28;20207;-83
2021/05/26 07:19:40;;;;;;;0.90;0.40;;;;;;;;;;5063499;28;20207;-83
2021/05/26 07:22:07;;;;;;;1.13;0.40;;;;;;;;;;5067534;28;20694;-82
2021/05/26 07:24:34;;;;;;;0.43;0.30;;;;;;;;;;5066042;28;20278;-83
2021/05/26 07:27:00;;;;;;;0.53;0.27;;;;;;;;;;5063938;28;20221;-83
2021/05/26 07:29:27;;;;;;;0.30;0.30;;;;;;;;;;5066620;28;20253;-83
2021/05/26 07:31:54;;;;;;;0.70;0.30;;;;;;;;;;5068884;28;20257;-81
2021/05/26 07:34:21;;;;;;;0.93;0.50;;;;;;;;;;5083712;28;20202;-82
2021/05/26 07:36:48;;;;;;;1.47;0.40;;;;;;;;;;5084059;28;20230;-83
2021/05/26 07:39:15;;;;;;;1.60;0.40;;;;;;;;;;5085876;28;20217;-83
2021/05/26 07:41:42;;;;;;;0.97;0.40;;;;;;;;;;5091564;28;20255;-84
2021/05/26 07:44:09;;;;;;;2.70;1.00;;;;;;;;;;5097888;28;20186;-82
2021/05/26 07:46:35;;;;;;;1.07;0.40;;;;;;;;;;5076575;28;20202;-86
2021/05/26 07:49:02;;;;;;;2.33;0.40;;;;;;;;;;5064492;28;20213;-85
2021/05/26 07:51:30;;;;;;;0.50;0.30;;;;;;;;;;5065450;28;20244;-86
2021/05/26 07:53:58;;;;;;;0.83;0.30;;;;;;;;;;5064411;28;20327;-86
2021/05/26 07:56:29;;;;;;;0.20;0.20;;;;;;;;;;5065722;28;20252;-83
2021/05/26 07:58:56;;;;;;;1.30;0.40;;;;;;;;;;5064770;28;20265;-85
2021/05/26 08:01:24;;;;;;;0.80;0.40;;;;;;;;;;5069719;28;20247;-83
2021/05/26 08:03:51;;;;;;;1.23;0.30;;;;;;;;;;5065221;28;20210;-85
2021/05/26 08:06:17;;;;;;;0.60;0.30;;;;;;;;;;5062404;28;20675;-85
2021/05/26 08:08:44;;;;;;;1.33;0.30;;;;;;;;;;5064436;28;20213;-85
2021/05/26 08:11:12;;;;;;;0.60;0.40;;;;;;;;;;5065611;28;20789;-86
2021/05/26 08:13:38;;;;;;;0.53;0.30;;;;;;;;;;5066690;28;20235;-84
2021/05/26 08:16:06;;;;;;;1.40;0.50;;;;;;;;;;5066656;28;20230;-84
2021/05/26 08:18:33;;;;;;;2.97;0.80;;;;;;;;;;5067661;28;20212;-83
2021/05/26 08:21:02;;;;;;;0.90;0.50;;;;;;;;;;5061472;28;20195;-83
2021/05/26 08:23:29;;;;;;;0.60;0.40;;;;;;;;;;5067077;28;20218;-85
2021/05/26 08:25:55;;;;;;;2.50;0.30;;;;;;;;;;5058268;28;20222;-83
2021/05/26 08:28:23;;;;;;;0.27;0.23;;;;;;;;;;5063550;28;20213;-86
2021/05/26 08:30:50;;;;;;;1.03;0.30;;;;;;;;;;5063250;28;20226;-85
2021/05/26 08:33:17;;;;;;;0.80;0.30;;;;;;;;;;5061105;28;20658;-85
2021/05/26 08:35:44;;;;;;;0.50;0.30;;;;;;;;;;5063460;28;20217;-83
2021/05/26 08:38:10;;;;;;;0.73;0.33;;;;;;;;;;5067364;28;20233;-85
2021/05/26 08:40:37;;;;;;;0.20;0.20;;;;;;;;;;5071057;28;20186;-83
2021/05/26 08:43:04;;;;;;;0.43;0.40;;;;;;;;;;5086097;28;20218;-83
2021/05/26 08:45:32;;;;;;;1.60;0.50;;;;;;;;;;5086885;28;20202;-86
2021/05/26 08:48:00;;;;;;;1.87;0.30;;;;;;;;;;5068228;28;20210;-85
2021/05/26 08:50:26;;;;;;;2.63;0.47;;;;;;;;;;5068341;28;20258;-86
2021/05/26 08:52:53;;;;;;;2.20;0.93;;;;;;;;;;5063433;28;20223;-85
2021/05/26 08:55:20;;;;;;;0.43;0.30;;;;;;;;;;5062864;28;20206;-85
2021/05/26 08:57:47;;;;;;;0.60;0.37;;;;;;;;;;5060953;28;20206;-85
2021/05/26 09:00:14;;;;;;;0.60;0.50;;;;;;;;;;5063473;28;20207;-84
2021/05/26 09:02:42;;;;;;;0.83;0.40;;;;;;;;;;5064548;28;20256;-86
2021/05/26 09:05:21;;;;;;;0.30;0.30;;;;;;;;;;5063593;28;20264;-84
2021/05/26 09:07:48;;;;;;;0.93;0.30;;;;;;;;;;5068900;28;20209;-85
2021/05/26 09:10:15;;;;;;;0.43;0.20;;;;;;;;;;5065764;28;20690;-85
2021/05/26 09:12:43;;;;;;;0.57;0.47;;;;;;;;;;5063106;28;20229;-85
2021/05/26 09:15:11;;;;;;;0.93;0.33;;;;;;;;;;5063874;28;20983;-84
2021/05/26 09:17:38;;;;;;;0.30;0.20;;;;;;;;;;5063476;28;20216;-85
2021/05/26 09:20:17;;;;;;;0.50;0.40;;;;;;;;;;5070405;28;20577;-84
2021/05/26 09:22:57;;;;;;;0.70;0.30;;;;;;;;;;5080549;28;20224;-83
2021/05/26 09:25:24;;;;;;;1.03;0.63;;;;;;;;;;5096480;28;20205;-83
2021/05/26 09:27:51;;;;;;;5.17;1.20;;;;;;;;;;5093821;28;20190;-84
2021/05/26 09:30:31;;;;;;;3.57;1.20;;;;;;;;;;5085848;28;20288;-85
2021/05/26 09:32:58;;;;;;;1.30;0.53;;;;;;;;;;5073864;28;20229;-87
2021/05/26 09:35:25;;;;;;;1.40;0.73;;;;;;;;;;5071032;28;20211;-86
2021/05/26 09:37:56;;;;;;;3.50;0.50;;;;;;;;;;5071595;28;20202;-87
2021/05/26 09:40:23;;;;;;;0.60;0.30;;;;;;;;;;5071800;28;20198;-87
2021/05/26 09:42:50;;;;;;;0.93;0.33;;;;;;;;;;5072555;28;20320;-84
2021/05/26 09:45:18;;;;;;;1.60;0.60;;;;;;;;;;5066728;28;20210;-86
2021/05/26 09:47:46;;;;;;;1.67;0.40;;;;;;;;;;5070070;28;20244;-86
2021/05/26 09:50:33;;;;;;;2.17;0.40;;;;;;;;;;5068323;28;20226;-85
2021/05/26 09:53:05;;;;;;;0.67;0.33;;;;;;;;;;5069496;28;20583;-87
2021/05/26 09:55:33;;;;;;;2.33;0.47;;;;;;;;;;5066408;28;20307;-85
2021/05/26 09:58:00;;;;;;;0.70;0.50;;;;;;;;;;5068575;28;20233;-85
2021/05/26 10:00:28;;;;;;;3.63;0.60;;;;;;;;;;5069169;28;20228;-86
2021/05/26 10:02:55;;;;;;;1.10;0.30;;;;;;;;;;5067652;28;20226;-86
2021/05/26 10:05:22;;;;;;;3.67;0.50;;;;;;;;;;5061220;28;20207;-86
2021/05/26 10:07:51;;;;;;;0.43;0.20;;;;;;;;;;5074262;28;20206;-85
2021/05/26 10:10:19;;;;;;;0.20;0.20;;;;;;;;;;5065808;28;20307;-86
2021/05/26 10:12:50;;;;;;;2.97;0.30;;;;;;;;;;5067745;28;20531;-86
2021/05/26 10:15:17;;;;;;;0.27;0.20;;;;;;;;;;5068737;28;20262;-84
2021/05/26 10:17:50;;;;;;;0.83;0.23;;;;;;;;;;5067564;28;20210;-86
2021/05/26 10:20:17;;;;;;;0.23;0.20;;;;;;;;;;5069159;28;20195;-84
2021/05/26 10:22:43;;;;;;;1.57;0.40;;;;;;;;;;5068250;28;20226;-85
2021/05/26 10:25:12;;;;;;;1.00;0.40;;;;;;;;;;5069557;28;20210;-86
2021/05/26 10:27:45;;;;;;;1.27;0.47;;;;;;;;;;5064161;28;20233;-84
2021/05/26 10:30:12;;;;;;;1.23;0.40;;;;;;;;;;5068645;28;20268;-84
2021/05/26 10:32:52;;;;;;;1.70;0.30;;;;;;;;;;5072451;28;20261;-87
2021/05/26 10:35:19;;;;;;;0.57;0.30;;;;;;;;;;5072913;28;20674;-85
2021/05/26 10:37:47;;;;;;;0.30;0.30;;;;;;;;;;5072041;28;20237;-85
2021/05/26 10:40:32;;;;;;;0.27;0.27;;;;;;;;;;5070533;28;20207;-86
2021/05/26 10:43:26;;;;;;;0.43;0.30;;;;;;;;;;5070420;28;20234;-85
2021/05/26 10:45:54;;;;;;;0.40;0.40;;;;;;;;;;5069811;28;20210;-86
2021/05/26 10:48:35;;;;;;;0.50;0.40;;;;;;;;;;5067143;28;20206;-85
2021/05/26 10:51:02;;;;;;;0.47;0.30;;;;;;;;;;5065208;28;20238;-84
2021/05/26 10:53:36;;;;;;;0.40;0.40;;;;;;;;;;5070594;28;20283;-85
2021/05/26 10:56:03;;;;;;;0.30;0.30;;;;;;;;;;5063303;28;20741;-86
2021/05/26 10:58:42;;;;;;;0.60;0.50;;;;;;;;;;5067916;28;20248;-86
2021/05/26 11:01:12;;;;;;;1.33;0.50;;;;;;;;;;5064500;28;20258;-84
2021/05/26 11:03:38;;;;;;;1.97;0.30;;;;;;;;;;5073411;28;20580;-84
2021/05/26 11:06:05;;;;;;;0.63;0.30;;;;;;;;;;5073121;28;20198;-82
2021/05/26 11:08:35;;;;;;;1.40;0.40;;;;;;;;;;5090021;28;20186;-81
2021/05/26 11:11:19;;;;;;;0.53;0.40;;;;;;;;;;5094330;28;20206;-81
2021/05/26 11:14:00;;;;;;;0.70;0.60;;;;;;;;;;5082553;28;20222;-85
2021/05/26 11:16:36;;;;;;;0.57;0.40;;;;;;;;;;5070681;28;20214;-85
2021/05/26 11:19:11;;;;;;;2.00;0.30;;;;;;;;;;5063357;28;20247;-83
2021/05/26 11:21:38;;;;;;;0.30;0.30;;;;;;;;;;5065892;28;20585;-82
2021/05/26 11:24:05;;;;;;;0.63;0.30;;;;;;;;;;5072405;28;20219;-85
2021/05/26 11:26:32;;;;;;;0.70;0.60;;;;;;;;;;5064307;28;20242;-84
2021/05/26 11:29:00;;;;;;;1.37;0.40;;;;;;;;;;5064208;28;20217;-83
2021/05/26 11:31:27;;;;;;;0.37;0.30;;;;;;;;;;5065247;28;20242;-85
2021/05/26 11:33:57;;;;;;;0.73;0.40;;;;;;;;;;5067349;28;20551;-83
2021/05/26 11:36:39;;;;;;;0.60;0.30;;;;;;;;;;5062885;28;20242;-83
2021/05/26 11:39:15;;;;;;;0.90;0.40;;;;;;;;;;5065307;28;20207;-83
2021/05/26 11:41:42;;;;;;;0.70;0.50;;;;;;;;;;5063964;28;20225;-85
2021/05/26 11:44:10;;;;;;;0.53;0.30;;;;;;;;;;5070741;28;20206;-85
2021/05/26 11:46:37;;;;;;;1.47;0.40;;;;;;;;;;5064448;28;20236;-84
2021/05/26 11:49:09;;;;;;;1.27;0.57;;;;;;;;;;5066679;28;20217;-84
2021/05/26 11:51:37;;;;;;;4.33;0.60;;;;;;;;;;5065827;28;20664;-83
2021/05/26 11:54:04;;;;;;;1.17;0.40;;;;;;;;;;5062054;28;20734;-83
2021/05/26 11:56:31;;;;;;;0.40;0.40;;;;;;;;;;5064755;28;20241;-84
2021/05/26 11:59:00;;;;;;;3.53;0.43;;;;;;;;;;5062549;28;20336;-84
2021/05/26 12:01:31;;;;;;;1.63;0.43;;;;;;;;;;5063880;28;20747;-84
2021/05/26 12:03:58;;;;;;;0.57;0.40;;;;;;;;;;5064499;28;20297;-83
2021/05/26 12:06:25;;;;;;;0.90;0.50;;;;;;;;;;5059565;28;20226;-83
2021/05/26 12:08:53;;;;;;;0.60;0.30;;;;;;;;;;5060091;28;20214;-83
2021/05/26 12:11:22;;;;;;;0.57;0.30;;;;;;;;;;5063368;28;20234;-83
2021/05/26 12:13:49;;;;;;;1.70;0.40;;;;;;;;;;5067564;28;20237;-83
2021/05/26 12:16:17;;;;;;;0.40;0.30;;;;;;;;;;5068197;28;20214;-83
2021/05/26 12:18:51;;;;;;;2.83;0.30;;;;;;;;;;5067804;28;20267;-84
2021/05/26 12:21:18;;;;;;;0.63;0.30;;;;;;;;;;5064594;28;20274;-84
2021/05/26 12:23:45;;;;;;;0.40;0.40;;;;;;;;;;5066937;28;20268;-83
2021/05/26 12:26:23;;;;;;;2.30;1.63;;;;;;;;;;5067308;28;20234;-82
2021/05/26 12:28:50;;;;;;;0.70;0.33;;;;;;;;;;5061978;28;20211;-82
2021/05/26 12:31:17;;;;;;;1.40;0.37;;;;;;;;;;5066237;28;20226;-84
2021/05/26 12:33:45;;;;;;;0.50;0.30;;;;;;;;;;5064098;28;20203;-84
2021/05/26 12:36:13;;;;;;;0.40;0.27;;;;;;;;;;5065080;28;20206;-83
2021/05/26 12:38:41;;;;;;;0.70;0.40;;;;;;;;;;5064674;28;20210;-83
2021/05/26 12:41:30;;;;;;;4.07;1.10;;;;;;;;;;5065267;28;20223;-84
2021/05/26 12:44:00;;;;;;;0.87;0.30;;;;;;;;;;5064066;28;20256;-83
2021/05/26 12:46:40;;;;;;;0.90;0.40;;;;;;;;;;5058694;28;20198;-83
2021/05/26 12:49:07;;;;;;;0.53;0.40;;;;;;;;;;5065503;28;20211;-83
2021/05/26 12:51:45;;;;;;;1.77;0.70;;;;;;;;;;5080721;28;20229;-81
2021/05/26 12:54:12;;;;;;;0.87;0.30;;;;;;;;;;5082826;28;20193;-81
2021/05/26 12:56:38;;;;;;;1.30;0.80;;;;;;;;;;5088125;28;20202;-83
2021/05/26 12:59:05;;;;;;;2.70;1.50;;;;;;;;;;5071772;28;20700;-84
2021/05/26 13:01:38;;;;;;;0.73;0.50;;;;;;;;;;5067786;28;20599;-84
2021/05/26 13:04:15;;;;;;;1.50;0.70;;;;;;;;;;5071291;28;20679;-85
2021/05/26 13:06:43;;;;;;;1.17;0.43;;;;;;;;;;5068579;28;20201;-82
2021/05/26 13:09:14;;;;;;;3.17;1.40;;;;;;;;;;5062266;28;20289;-85
2021/05/26 13:11:42;;;;;;;4.73;2.27;;;;;;;;;;5069523;28;20230;-83
2021/05/26 13:14:09;;;;;;;4.93;2.40;;;;;;;;;;5066651;28;20958;-83
2021/05/26 13:16:36;;;;;;;1.70;0.80;;;;;;;;;;5069597;28;20221;-83
2021/05/26 13:19:04;;;;;;;8.53;5.53;;;;;;;;;;5071446;28;20687;-83
2021/05/26 13:21:31;;;;;;;1.87;0.90;;;;;;;;;;5063501;28;20222;-84
2021/05/26 13:23:58;;;;;;;0.80;0.40;;;;;;;;;;5068818;28;20214;-83
2021/05/26 13:26:25;;;;;;;2.70;1.20;;;;;;;;;;5067240;28;20234;-86
2021/05/26 13:28:52;;;;;;;3.63;1.83;;;;;;;;;;5066901;28;20586;-85
2021/05/26 13:31:19;;;;;;;4.73;1.03;;;;;;;;;;5065924;28;20654;-85
2021/05/26 13:33:46;;;;;;;0.93;0.50;;;;;;;;;;5065058;28;20694;-84
2021/05/26 13:36:12;;;;;;;2.63;0.60;;;;;;;;;;5059462;28;20243;-85
2021/05/26 13:38:39;;;;;;;2.83;1.30;;;;;;;;;;5063176;28;20816;-84
2021/05/26 13:41:06;;;;;;;3.37;0.80;;;;;;;;;;5064518;28;20276;-85
2021/05/26 13:43:33;;;;;;;0.97;0.60;;;;;;;;;;5063385;28;20253;-85
2021/05/26 13:46:00;;;;;;;2.67;0.70;;;;;;;;;;5069588;28;20256;-84
2021/05/26 13:48:27;;;;;;;3.13;0.50;;;;;;;;;;5067455;28;20199;-83
2021/05/26 13:50:54;;;;;;;1.20;0.40;;;;;;;;;;5066423;28;20229;-83
2021/05/26 13:53:20;;;;;;;3.13;0.70;;;;;;;;;;5071180;28;20213;-83
2021/05/26 13:55:47;;;;;;;1.30;0.53;;;;;;;;;;5067390;28;20230;-84
2021/05/26 13:58:14;;;;;;;2.47;1.00;;;;;;;;;;5064153;28;20703;-84
2021/05/26 14:00:43;;;;;;;4.47;2.17;;;;;;;;;;5062447;28;20217;-82
2021/05/26 14:03:12;;;;;;;1.40;0.53;;;;;;;;;;5063388;28;20215;-85
2021/05/26 14:05:41;;;;;;;1.50;0.40;;;;;;;;;;5065942;28;20203;-85
2021/05/26 14:08:08;;;;;;;0.60;0.40;;;;;;;;;;5067143;28;20759;-85
2021/05/26 14:10:36;;;;;;;1.73;0.47;;;;;;;;;;5068395;28;20599;-83
2021/05/26 14:13:03;;;;;;;2.93;0.60;;;;;;;;;;5064403;28;20314;-85
2021/05/26 14:15:30;;;;;;;1.37;0.70;;;;;;;;;;5063254;28;20198;-84
2021/05/26 14:18:00;;;;;;;1.70;0.80;;;;;;;;;;5069453;28;20687;-83
2021/05/26 14:20:27;;;;;;;2.40;0.60;;;;;;;;;;5070576;28;20266;-83
2021/05/26 14:22:54;;;;;;;1.10;0.50;;;;;;;;;;5065366;28;20227;-84
2021/05/26 14:25:21;;;;;;;6.97;0.80;;;;;;;;;;5068452;28;20210;-82
2021/05/26 14:27:48;;;;;;;0.70;0.40;;;;;;;;;;5071004;28;20234;-83
2021/05/26 14:30:15;;;;;;;2.00;0.40;;;;;;;;;;5065707;28;20740;-83
2021/05/26 14:32:43;;;;;;;2.13;0.40;;;;;;;;;;5073145;28;20242;-84
2021/05/26 14:35:13;;;;;;;0.80;0.40;;;;;;;;;;5078409;28;20198;-82
2021/05/26 14:37:42;;;;;;;0.63;0.40;;;;;;;;;;5092418;28;20186;-82
2021/05/26 14:40:10;;;;;;;1.83;0.70;;;;;;;;;;5095750;28;20220;-82
2021/05/26 14:42:37;;;;;;;0.70;0.50;;;;;;;;;;5078628;28;20225;-84
2021/05/26 14:45:04;;;;;;;1.03;0.50;;;;;;;;;;5068646;28;20237;-83
2021/05/26 14:47:31;;;;;;;4.17;0.50;;;;;;;;;;5064314;28;20700;-84
2021/05/26 14:49:58;;;;;;;1.13;0.67;;;;;;;;;;5065726;28;20789;-82
2021/05/26 14:52:25;;;;;;;0.57;0.57;;;;;;;;;;5069242;28;20242;-85
2021/05/26 14:54:52;;;;;;;1.07;0.50;;;;;;;;;;5071030;28;20236;-84
2021/05/26 14:57:20;;;;;;;1.20;0.50;;;;;;;;;;5069180;28;20300;-85
2021/05/26 14:59:49;;;;;;;0.37;0.33;;;;;;;;;;5066423;28;20194;-83
2021/05/26 15:02:15;;;;;;;0.90;0.50;;;;;;;;;;5074604;28;20230;-82
2021/05/26 15:04:42;;;;;;;1.00;0.60;;;;;;;;;;5071672;28;20202;-83
2021/05/26 15:07:09;;;;;;;0.97;0.50;;;;;;;;;;5067410;28;20198;-84
2021/05/26 15:09:37;;;;;;;2.57;0.50;;;;;;;;;;5071116;28;20646;-85